Afton, MN

3:08 PM CDT on July 06, 2015 (GMT -0500)
Lake St. Croix | | Change Station
CLOSE
Current Station
Personal Weather Station
Location: St. Croix Beach, MN
Elevation: 710 ft
Nearby Weather Stations

Elev 710 ft 44.93 °N, 92.77 °W | Updated 16 seconds ago

Rain
Rain
66.7 °F
Feels Like 66.7 °F
N
8.0
Wind Variable Wind from ENE
Gusts 0.0 mph

Today
High -- | Low -- °F
--% Chance of Precip.
Yesterday
High -- | Low -- °F
Precip. -- in
5:31 AM 8:59 PM
Waning Gibbous, 72% visible
Pressure 29.93 in
Visibility 4.0 miles
Clouds Mostly Cloudy 1400 ft
Overcast 1900 ft
Dew Point 63 °F
Humidity 88%
Rainfall 4.73 in
Snow Depth Not available.
UV 3 out of 12
Pollen .60 out of 12
Air Quality Not available.
Flu Activity Not available.
METAR K21D 061955Z AUTO 36010G16KT 4SM HZ BKN014 OVC019 18/16 A2993 RMK AO2 P0001

More Conditions Fewer Conditions

Pressure 29.93 in
Visibility 4.0 miles
Clouds Mostly Cloudy 1400 ft
Overcast 1900 ft
Dew Point 63 °F
Humidity 88%
Rainfall 4.73 in
Snow Depth Not available.
UV 3 out of 12
Pollen .60 out of 12
Air Quality Not available.
Flu Activity Not available.
METAR K21D 061955Z AUTO 36010G16KT 4SM HZ BKN014 OVC019 18/16 A2993 RMK AO2 P0001

More Conditions Fewer Conditions

10-Day Weather Forecast

×

Almanac

Astronomy

Jul. 06, 2015 Rise Set
Actual Time
Civil Twilight
Nautical Twilight
Astronomical Twilight
Moon
Length of Visible Light
Length of Day
Tomorrow will be .
, % of the Moon is Illuminated

Today's Extremes

State Highs State Lows

Community

WunderPhotos

Upload Photos

1,835,625 photos uploaded!

WunderBlogs® & News

Nearby

Air Quality

  Air Quality AQ Index Pollutant
Not available.

Snow Depth

Station Depth Elevation

Earthquake Activity

City Distance Mag. Time & Date
Minimum magnitude displayed is 2.5.

Coastal Water Temperatures

Place Temperature

Stations

Nearby Weather Stations

Station Location Temp. Windchill Dew Point Humidity Wind Precip. Elev Updated Type